To NAV CANADA Home Page Login to a new session Search on AWWS site Feedback and Comments Disclaimer Vers la page française équivalente Tips FAQ What's new on the site To the Forecasts and Observations / NOTAM section To "File a Flight Plan" website Publications and other links Update of the User's profile FIC Telephone Numbers My Weather Data Folder Route Weather Data Regional Weather Data Local Weather Data To the Forecasts and Observations / NOTAM section
Request Generated 08/27/2016 at 22:10:06 UTC . Weather information available at that time is displayed.

METAR/TAF

HAY RIVER/MERLYN CARTER AIRPORT/NT    

METAR CYHY 272200Z 02007G15KT 320V060 15SM OVC030 12/07 A2994 RMK SC8
SLP146=
METAR CYHY 272100Z 04007G15KT 360V080 15SM OVC030 13/06 A2992 RMK SC8
SLP141=
METAR CYHY 272000Z 05009G15KT 010V080 15SM OVC035 13/06 A2991 RMK SC8
SLP137=

TAF CYHY 271738Z 2718/2806 07012G22KT P6SM -RA SCT030 OVC050 TEMPO
2718/2806 P6SM -SHRA BKN020 OVC030
BECMG 2722/2724 02012G22KT
RMK NXT FCST BY 280000Z=
Your time UTC time
Weather data provided by Environment Canada and NAV CANADA